Ocean Breeze — V7NO4 — position and weather

sailwx.info

Track history (hours):
 
Tides and Currents Weather Stations Pressure Air Temp Water Temp Dewpoint Dewpoint Depression Visibility Wind Speed Wind Dir Waves Ship Positions

Ocean Breeze

Last reported at 2018-Apr-26 19:00 UTC. Time now 2018-Apr-26 19:08 UTC.
Position N 35°51' E 016°01'.

Length 138 m; draft 8 m.

Type: Cargo ship. MMSI: 538002986.

Date/timePositionNaut miles runAvg speedWind from/ knotsBaromVisibWave heightAir tempDewpointWater temp
2018-Apr-26 19:00N 35°51' E 016°01'612.0
2018-Apr-26 18:30N 35°52' E 015°54'612.3
2018-Apr-26 18:00N 35°52' E 015°46'612.6
2018-Apr-26 17:30N 35°52' E 015°38'912.2
2018-Apr-26 16:46N 35°52' E 015°27'311.9
2018-Apr-26 16:30N 35°52' E 015°23'611.7
2018-Apr-26 16:00N 35°52' E 015°16'612.2
2018-Apr-26 15:30N 35°52' E 015°09'612.1
2018-Apr-26 15:00N 35°53' E 015°01'612.0
2018-Apr-26 14:30N 35°52' E 014°54'611.7
2018-Apr-26 14:00N 35°53' E 014°46'2 2.4
2018-Apr-26 13:21N 35°53' E 014°45'0 0.0
2018-Apr-26 13:00N 35°53' E 014°45'0 0.0
2018-Apr-26 12:30N 35°53' E 014°45'0 0.0
2018-Apr-26 11:54N 35°53' E 014°45'0 0.0
2018-Apr-26 11:30N 35°53' E 014°45'0 0.0
2018-Apr-26 10:57N 35°53' E 014°45'0 0.0
2018-Apr-26 10:30N 35°53' E 014°45'0 0.1
2018-Apr-26 09:59N 35°53' E 014°45'0 0.5
2018-Apr-26 09:30N 35°53' E 014°45'1 2.3
2018-Apr-26 09:00N 35°54' E 014°46'510.1
2018-Apr-26 08:30N 35°51' E 014°51'1 1.9
2018-Apr-26 08:00N 35°50' E 014°51'0 0.3
2018-Apr-26 07:30N 35°50' E 014°51'2 4.3
2018-Apr-26 07:00N 35°48' E 014°51'611.3
2018-Apr-26 06:30N 35°44' E 014°46'611.3
2018-Apr-26 06:00N 35°43' E 014°39'611.8
2018-Apr-26 05:30N 35°42' E 014°32'611.9
2018-Apr-26 05:00N 35°41' E 014°24'611.8
2018-Apr-26 04:30N 35°40' E 014°17'611.5
2018-Apr-26 04:00N 35°37' E 014°11'611.4
2018-Apr-26 03:30N 35°34' E 014°05'611.3
2018-Apr-26 03:00N 35°31' E 013°59'611.8
2018-Apr-26 02:30N 35°29' E 013°53'712.0
2018-Apr-26 01:57N 35°26' E 013°45'712.2
2018-Apr-26 01:23N 35°22' E 013°38'512.1
2018-Apr-26 01:00N 35°20' E 013°33'611.8
2018-Apr-26 00:30N 35°18' E 013°26'611.4
2018-Apr-26 00:00N 35°15' E 013°20'611.6
2018-Apr-25 23:30N 35°12' E 013°14'611.5
2018-Apr-25 23:00N 35°09' E 013°08'3211.5
2018-Apr-25 20:11N 34°53' E 012°34'211.4
2018-Apr-25 19:59N 34°52' E 012°31'611.4
2018-Apr-25 19:27N 34°49' E 012°25'511.4
2018-Apr-25 19:00N 34°47' E 012°19'611.5
2018-Apr-25 18:30N 34°44' E 012°13'1811.7
2018-Apr-25 16:59N 34°36' E 011°54'611.6
2018-Apr-25 16:30N 34°34' E 011°48'711.6
2018-Apr-25 15:55N 34°31' E 011°40'511.8
2018-Apr-25 15:30N 34°29' E 011°35'611.8
2018-Apr-25 15:00N 34°26' E 011°28'611.7
2018-Apr-25 14:30N 34°24' E 011°22'611.7
2018-Apr-25 13:58N 34°22' E 011°15'511.5
2018-Apr-25 13:30N 34°19' E 011°09'611.4
2018-Apr-25 13:00N 34°17' E 011°02'510.9
2018-Apr-25 12:30N 34°15' E 010°57'611.3
2018-Apr-25 11:59N 34°12' E 010°50'  
Track history (hours):
 
Tides and Currents Weather Stations Pressure Air Temp Water Temp Dewpoint Dewpoint Depression Visibility Wind Speed Wind Dir Waves Ship Positions

Ocean Breeze

Last reported at 2018-Apr-26 19:00 UTC. Time now 2018-Apr-26 19:08 UTC.
Position N 35°51' E 016°01'.

Length 138 m; draft 8 m.

Type: Cargo ship. MMSI: 538002986.

Date/timePositionNaut miles runAvg speedWind from/ knotsBaromVisibWave heightAir tempDewpointWater temp
2018-Apr-26 19:00N 35°51' E 016°01'612.0
2018-Apr-26 18:30N 35°52' E 015°54'612.3
2018-Apr-26 18:00N 35°52' E 015°46'612.6
2018-Apr-26 17:30N 35°52' E 015°38'912.2
2018-Apr-26 16:46N 35°52' E 015°27'311.9
2018-Apr-26 16:30N 35°52' E 015°23'611.7
2018-Apr-26 16:00N 35°52' E 015°16'612.2
2018-Apr-26 15:30N 35°52' E 015°09'612.1
2018-Apr-26 15:00N 35°53' E 015°01'612.0
2018-Apr-26 14:30N 35°52' E 014°54'611.7
2018-Apr-26 14:00N 35°53' E 014°46'2 2.4
2018-Apr-26 13:21N 35°53' E 014°45'0 0.0
2018-Apr-26 13:00N 35°53' E 014°45'0 0.0
2018-Apr-26 12:30N 35°53' E 014°45'0 0.0
2018-Apr-26 11:54N 35°53' E 014°45'0 0.0
2018-Apr-26 11:30N 35°53' E 014°45'0 0.0
2018-Apr-26 10:57N 35°53' E 014°45'0 0.0
2018-Apr-26 10:30N 35°53' E 014°45'0 0.1
2018-Apr-26 09:59N 35°53' E 014°45'0 0.5
2018-Apr-26 09:30N 35°53' E 014°45'1 2.3
2018-Apr-26 09:00N 35°54' E 014°46'510.1
2018-Apr-26 08:30N 35°51' E 014°51'1 1.9
2018-Apr-26 08:00N 35°50' E 014°51'0 0.3
2018-Apr-26 07:30N 35°50' E 014°51'2 4.3
2018-Apr-26 07:00N 35°48' E 014°51'611.3
2018-Apr-26 06:30N 35°44' E 014°46'611.3
2018-Apr-26 06:00N 35°43' E 014°39'611.8
2018-Apr-26 05:30N 35°42' E 014°32'611.9
2018-Apr-26 05:00N 35°41' E 014°24'611.8
2018-Apr-26 04:30N 35°40' E 014°17'611.5
2018-Apr-26 04:00N 35°37' E 014°11'611.4
2018-Apr-26 03:30N 35°34' E 014°05'611.3
2018-Apr-26 03:00N 35°31' E 013°59'611.8
2018-Apr-26 02:30N 35°29' E 013°53'712.0
2018-Apr-26 01:57N 35°26' E 013°45'712.2
2018-Apr-26 01:23N 35°22' E 013°38'512.1
2018-Apr-26 01:00N 35°20' E 013°33'611.8
2018-Apr-26 00:30N 35°18' E 013°26'611.4
2018-Apr-26 00:00N 35°15' E 013°20'611.6
2018-Apr-25 23:30N 35°12' E 013°14'611.5
2018-Apr-25 23:00N 35°09' E 013°08'3211.5
2018-Apr-25 20:11N 34°53' E 012°34'211.4
2018-Apr-25 19:59N 34°52' E 012°31'611.4
2018-Apr-25 19:27N 34°49' E 012°25'511.4
2018-Apr-25 19:00N 34°47' E 012°19'611.5
2018-Apr-25 18:30N 34°44' E 012°13'1811.7
2018-Apr-25 16:59N 34°36' E 011°54'611.6
2018-Apr-25 16:30N 34°34' E 011°48'711.6
2018-Apr-25 15:55N 34°31' E 011°40'511.8
2018-Apr-25 15:30N 34°29' E 011°35'611.8
2018-Apr-25 15:00N 34°26' E 011°28'611.7
2018-Apr-25 14:30N 34°24' E 011°22'611.7
2018-Apr-25 13:58N 34°22' E 011°15'511.5
2018-Apr-25 13:30N 34°19' E 011°09'611.4
2018-Apr-25 13:00N 34°17' E 011°02'510.9
2018-Apr-25 12:30N 34°15' E 010°57'611.3
2018-Apr-25 11:59N 34°12' E 010°50'  

Dump ship's entire track history